createdAt,value
2018-06-30T00:01:32.741Z,20.60
2018-06-30T00:04:01.635Z,20.50
2018-06-30T00:06:30.745Z,20.60
2018-06-30T00:08:59.661Z,20.60
2018-06-30T00:11:29.412Z,20.60
2018-06-30T00:13:59.351Z,20.60
2018-06-30T00:16:32.938Z,20.60
2018-06-30T00:19:01.969Z,20.60
2018-06-30T00:21:31.409Z,20.60
2018-06-30T00:24:00.286Z,20.50
2018-06-30T00:26:29.137Z,20.50
2018-06-30T00:28:57.985Z,20.50
2018-06-30T00:31:27.793Z,20.50
2018-06-30T00:33:57.675Z,20.40
2018-06-30T00:36:26.563Z,20.50
2018-06-30T00:38:55.435Z,20.50
2018-06-30T00:41:24.207Z,20.40
2018-06-30T00:43:53.345Z,20.40
2018-06-30T00:46:23.275Z,20.30
2018-06-30T00:48:52.739Z,20.30
2018-06-30T00:51:21.619Z,20.30
2018-06-30T00:53:50.504Z,20.30
2018-06-30T00:56:19.383Z,20.20
2018-06-30T00:58:49.173Z,20.20
2018-06-30T01:01:18.699Z,20.20
2018-06-30T01:03:47.695Z,20.10
2018-06-30T01:06:16.631Z,20.20
2018-06-30T01:08:46.163Z,20.10
2018-06-30T01:11:15.792Z,20.10
2018-06-30T01:13:48.683Z,20.10
2018-06-30T01:16:17.613Z,20.10
2018-06-30T01:18:48.579Z,20.00
2018-06-30T01:21:18.113Z,20.00
2018-06-30T01:23:47.354Z,20.00
2018-06-30T01:26:16.209Z,19.90
2018-06-30T01:28:46.166Z,19.90
2018-06-30T01:31:15.323Z,19.90
2018-06-30T01:33:44.243Z,19.80
2018-06-30T01:36:13.355Z,19.80
2018-06-30T01:38:46.151Z,19.80
2018-06-30T01:41:15.087Z,19.80
2018-06-30T01:43:44.575Z,19.90
2018-06-30T01:46:13.497Z,19.90
2018-06-30T01:48:47.064Z,19.80
2018-06-30T01:51:16.383Z,19.80
2018-06-30T01:53:46.019Z,19.70
2018-06-30T01:58:44.959Z,19.80
2018-06-30T02:01:18.176Z,19.70
2018-06-30T02:03:47.188Z,19.60
2018-06-30T02:06:16.017Z,19.60
2018-06-30T02:25:17.674Z,19.50
2018-06-30T02:27:47.893Z,19.60
2018-06-30T02:30:17.443Z,19.50
2018-06-30T02:32:46.233Z,19.50
2018-06-30T02:35:15.735Z,19.40
2018-06-30T02:37:44.557Z,19.40
2018-06-30T02:40:18.075Z,19.30
2018-06-30T02:42:46.959Z,19.40
2018-06-30T02:45:16.009Z,19.40
2018-06-30T02:47:44.823Z,19.40
2018-06-30T02:50:13.647Z,19.40
2018-06-30T02:52:42.535Z,19.40
2018-06-30T02:55:11.511Z,19.50
2018-06-30T02:57:40.444Z,19.40
2018-06-30T03:02:37.773Z,19.40
2018-06-30T03:05:06.722Z,19.30
2018-06-30T03:07:36.857Z,19.30
2018-06-30T03:10:10.049Z,19.20
2018-06-30T03:15:09.191Z,19.20
2018-06-30T03:17:41.835Z,19.20
2018-06-30T03:20:10.685Z,19.30
2018-06-30T03:22:40.469Z,19.20
2018-06-30T03:25:09.345Z,19.20
2018-06-30T03:27:38.203Z,19.10
2018-06-30T03:30:07.113Z,19.10
2018-06-30T03:32:41.013Z,19.20
2018-06-30T03:35:11.011Z,19.10
2018-06-30T03:40:08.267Z,19.20
2018-06-30T03:42:37.481Z,19.10
2018-06-30T03:45:06.376Z,19.10
2018-06-30T03:47:35.677Z,19.20
2018-06-30T03:50:09.835Z,19.10
2018-06-30T03:52:38.639Z,19.10
2018-06-30T03:55:07.439Z,19.10
2018-06-30T03:57:37.668Z,19.10
2018-06-30T04:00:07.447Z,19.20
2018-06-30T04:02:36.473Z,19.10
2018-06-30T04:05:05.313Z,19.10
2018-06-30T04:07:35.549Z,19.20
2018-06-30T04:10:04.597Z,19.30
2018-06-30T04:12:33.532Z,19.20
2018-06-30T04:15:02.372Z,19.20
2018-06-30T04:17:31.131Z,19.30
2018-06-30T04:20:00.663Z,19.30
2018-06-30T04:22:29.871Z,19.40
2018-06-30T04:24:58.845Z,19.40
2018-06-30T04:27:28.197Z,19.40
2018-06-30T04:29:57.108Z,19.50
2018-06-30T04:32:26.176Z,19.50
2018-06-30T04:34:55.027Z,19.50
2018-06-30T04:37:24.249Z,19.50
2018-06-30T04:39:53.053Z,19.80
2018-06-30T04:42:21.949Z,19.80
2018-06-30T04:44:50.864Z,19.80
2018-06-30T04:47:19.721Z,19.80
2018-06-30T04:49:48.845Z,19.80
2018-06-30T04:54:46.635Z,20.00
2018-06-30T04:57:15.721Z,20.00
2018-06-30T04:59:44.652Z,20.00
2018-06-30T05:02:13.853Z,20.10
2018-06-30T05:04:45.027Z,20.10
2018-06-30T05:07:14.325Z,20.20
2018-06-30T05:09:43.557Z,20.30
2018-06-30T05:12:12.539Z,20.20
2018-06-30T05:14:43.285Z,20.30
2018-06-30T05:17:12.204Z,20.50
2018-06-30T05:19:41.331Z,20.60
2018-06-30T05:22:10.389Z,20.80
2018-06-30T05:24:39.423Z,21.00
2018-06-30T05:27:09.063Z,21.10
2018-06-30T05:29:39.079Z,21.20
2018-06-30T05:32:08.753Z,21.50
2018-06-30T05:34:37.660Z,21.80
2018-06-30T05:37:06.875Z,22.00
2018-06-30T05:39:36.881Z,22.20
2018-06-30T05:42:05.925Z,22.30
2018-06-30T05:44:35.165Z,22.40
2018-06-30T05:47:04.401Z,22.50
2018-06-30T05:49:33.355Z,22.60
2018-06-30T05:52:02.231Z,22.80
2018-06-30T05:54:35.549Z,22.90
2018-06-30T05:57:14.153Z,22.90
2018-06-30T05:59:49.914Z,22.70
2018-06-30T06:02:19.313Z,23.10
2018-06-30T06:04:49.530Z,23.00
2018-06-30T06:07:31.221Z,23.10
2018-06-30T06:10:01.731Z,22.90
2018-06-30T06:12:31.558Z,22.50
2018-06-30T06:15:01.257Z,22.80
2018-06-30T06:46:09.163Z,25.60
2018-06-30T06:55:36.109Z,28.80
2018-06-30T06:58:08.568Z,28.70
2018-06-30T07:00:39.865Z,29.30
2018-06-30T07:03:10.653Z,30.50
2018-06-30T07:05:41.272Z,31.40
2018-06-30T07:08:12.000Z,31.70
2018-06-30T07:10:43.815Z,32.10
2018-06-30T07:13:14.379Z,31.90
2018-06-30T07:15:46.659Z,32.00
2018-06-30T07:18:18.995Z,32.20
2018-06-30T07:20:49.580Z,32.50
2018-06-30T07:23:21.527Z,32.90
2018-06-30T07:25:56.470Z,32.40
2018-06-30T07:28:43.024Z,32.50
2018-06-30T07:31:14.896Z,32.20
2018-06-30T08:24:15.858Z,28.40
2018-06-30T08:27:07.076Z,28.30
2018-06-30T08:29:43.176Z,28.10
2018-06-30T08:32:19.232Z,27.40
2018-06-30T08:35:06.938Z,27.30
2018-06-30T08:37:54.033Z,27.80
2018-06-30T08:40:27.764Z,28.10
2018-06-30T08:43:18.572Z,28.40
2018-06-30T08:46:39.427Z,28.60
2018-06-30T08:49:39.449Z,28.70
2018-06-30T08:52:37.832Z,28.20
2018-06-30T08:55:12.707Z,27.90
2018-06-30T09:20:02.194Z,28.60
2018-06-30T09:43:16.498Z,28.90
2018-06-30T09:47:47.426Z,29.40
2018-06-30T10:04:05.755Z,30.00
2018-06-30T10:06:55.249Z,29.80
2018-06-30T10:09:33.939Z,29.60
2018-06-30T10:15:25.695Z,29.70
2018-06-30T10:18:21.213Z,30.20
2018-06-30T10:26:28.537Z,30.00
2018-06-30T10:29:06.844Z,29.30
2018-06-30T10:31:59.781Z,30.10
2018-06-30T10:41:45.317Z,29.50
2018-06-30T10:44:18.579Z,29.70
2018-06-30T10:46:50.571Z,29.60
2018-06-30T10:49:21.781Z,29.30
2018-06-30T10:51:53.933Z,29.00
2018-06-30T10:54:39.311Z,29.30
2018-06-30T10:57:09.484Z,29.20
2018-06-30T10:59:41.768Z,29.30
2018-06-30T11:02:14.602Z,29.70
2018-06-30T11:04:45.884Z,30.00
2018-06-30T11:07:16.156Z,29.50
2018-06-30T11:09:47.410Z,29.80
2018-06-30T12:33:42.104Z,30.30
2018-06-30T12:36:21.121Z,29.80
2018-06-30T12:38:50.450Z,29.50
2018-06-30T12:41:19.377Z,29.90
2018-06-30T12:43:49.282Z,30.30
2018-06-30T12:46:18.528Z,30.60
2018-06-30T12:48:47.797Z,30.50
2018-06-30T12:51:17.863Z,30.40
2018-06-30T12:53:47.126Z,30.00
2018-06-30T12:56:16.124Z,29.90
2018-06-30T12:58:46.400Z,30.10
2018-06-30T13:01:15.416Z,29.90
2018-06-30T13:03:44.911Z,29.80
2018-06-30T13:06:14.154Z,29.80
2018-06-30T13:08:43.030Z,30.10
2018-06-30T13:11:12.606Z,29.80
2018-06-30T13:13:42.204Z,30.00
2018-06-30T13:16:12.147Z,30.00
2018-06-30T13:18:41.280Z,30.00
2018-06-30T13:21:10.371Z,29.90
2018-06-30T13:23:39.690Z,29.80
2018-06-30T13:26:08.810Z,30.10
2018-06-30T13:28:37.807Z,30.00
2018-06-30T13:31:07.547Z,30.10
2018-06-30T13:33:36.535Z,30.00
2018-06-30T13:36:05.908Z,29.90
2018-06-30T13:38:35.135Z,29.80
2018-06-30T13:41:04.256Z,30.10
2018-06-30T13:43:33.710Z,30.00
2018-06-30T13:46:02.904Z,30.00
2018-06-30T13:48:31.817Z,30.00
2018-06-30T13:51:00.812Z,30.00
2018-06-30T13:53:29.736Z,29.60
2018-06-30T13:55:59.386Z,29.40
